sensor_id;sensor_type;location;lat;lon;timestamp;temperature;humidity
42841;DHT22;28491;46.898;7.660;2024-03-08T00:00:34;1.10;86.90
42841;DHT22;28491;46.898;7.660;2024-03-08T00:02:59;1.00;93.50
42841;DHT22;28491;46.898;7.660;2024-03-08T00:05:27;1.00;95.00
42841;DHT22;28491;46.898;7.660;2024-03-08T00:07:53;1.00;96.10
42841;DHT22;28491;46.898;7.660;2024-03-08T00:10:18;1.10;97.10
42841;DHT22;28491;46.898;7.660;2024-03-08T00:12:46;1.10;94.70
42841;DHT22;28491;46.898;7.660;2024-03-08T00:15:13;1.00;93.10
42841;DHT22;28491;46.898;7.660;2024-03-08T00:17:40;1.00;92.00
42841;DHT22;28491;46.898;7.660;2024-03-08T00:20:06;1.00;95.40
42841;DHT22;28491;46.898;7.660;2024-03-08T00:22:37;1.00;96.10
42841;DHT22;28491;46.898;7.660;2024-03-08T00:25:04;1.00;94.70
42841;DHT22;28491;46.898;7.660;2024-03-08T00:27:30;1.00;95.50
42841;DHT22;28491;46.898;7.660;2024-03-08T00:29:59;1.00;96.50
42841;DHT22;28491;46.898;7.660;2024-03-08T00:32:24;1.00;95.70
42841;DHT22;28491;46.898;7.660;2024-03-08T00:34:50;1.00;96.60
42841;DHT22;28491;46.898;7.660;2024-03-08T00:37:17;1.00;94.40
42841;DHT22;28491;46.898;7.660;2024-03-08T00:39:43;1.00;87.30
42841;DHT22;28491;46.898;7.660;2024-03-08T00:42:08;1.00;91.20
42841;DHT22;28491;46.898;7.660;2024-03-08T00:44:34;1.00;94.30
42841;DHT22;28491;46.898;7.660;2024-03-08T00:46:59;1.00;97.20
42841;DHT22;28491;46.898;7.660;2024-03-08T00:49:25;0.90;96.60
42841;DHT22;28491;46.898;7.660;2024-03-08T00:51:51;1.00;96.20
42841;DHT22;28491;46.898;7.660;2024-03-08T00:54:16;1.00;97.70
42841;DHT22;28491;46.898;7.660;2024-03-08T00:56:42;1.00;96.50
42841;DHT22;28491;46.898;7.660;2024-03-08T00:59:08;1.00;97.00
42841;DHT22;28491;46.898;7.660;2024-03-08T01:01:33;1.00;96.40
42841;DHT22;28491;46.898;7.660;2024-03-08T01:03:59;1.00;96.80
42841;DHT22;28491;46.898;7.660;2024-03-08T01:06:24;1.00;94.50
42841;DHT22;28491;46.898;7.660;2024-03-08T01:08:50;0.90;92.10
42841;DHT22;28491;46.898;7.660;2024-03-08T01:11:18;1.00;90.70
42841;DHT22;28491;46.898;7.660;2024-03-08T01:13:44;0.90;90.60
42841;DHT22;28491;46.898;7.660;2024-03-08T01:16:12;0.90;92.60
42841;DHT22;28491;46.898;7.660;2024-03-08T01:18:38;0.90;92.10
42841;DHT22;28491;46.898;7.660;2024-03-08T01:21:04;0.90;92.80
42841;DHT22;28491;46.898;7.660;2024-03-08T01:23:29;0.90;92.50
42841;DHT22;28491;46.898;7.660;2024-03-08T01:25:55;0.90;92.80
42841;DHT22;28491;46.898;7.660;2024-03-08T01:28:24;0.90;93.10
42841;DHT22;28491;46.898;7.660;2024-03-08T01:30:50;0.90;91.40
42841;DHT22;28491;46.898;7.660;2024-03-08T01:33:24;0.90;82.50
42841;DHT22;28491;46.898;7.660;2024-03-08T01:35:53;0.70;73.60
42841;DHT22;28491;46.898;7.660;2024-03-08T01:38:20;0.60;75.40
42841;DHT22;28491;46.898;7.660;2024-03-08T01:40:49;0.60;83.70
42841;DHT22;28491;46.898;7.660;2024-03-08T01:43:19;0.70;81.70
42841;DHT22;28491;46.898;7.660;2024-03-08T01:45:44;0.70;76.60
42841;DHT22;28491;46.898;7.660;2024-03-08T01:48:10;0.80;75.20
42841;DHT22;28491;46.898;7.660;2024-03-08T01:50:38;0.60;77.00
42841;DHT22;28491;46.898;7.660;2024-03-08T01:53:05;0.50;84.10
42841;DHT22;28491;46.898;7.660;2024-03-08T01:55:31;0.50;85.90
42841;DHT22;28491;46.898;7.660;2024-03-08T01:57:58;0.50;84.50
42841;DHT22;28491;46.898;7.660;2024-03-08T02:00:25;0.50;86.30
42841;DHT22;28491;46.898;7.660;2024-03-08T02:02:54;0.40;86.80
42841;DHT22;28491;46.898;7.660;2024-03-08T02:05:20;0.50;90.00
42841;DHT22;28491;46.898;7.660;2024-03-08T02:07:46;0.50;86.30
42841;DHT22;28491;46.898;7.660;2024-03-08T02:10:12;0.50;80.10
42841;DHT22;28491;46.898;7.660;2024-03-08T02:12:40;0.50;81.30
42841;DHT22;28491;46.898;7.660;2024-03-08T02:15:06;0.40;80.90
42841;DHT22;28491;46.898;7.660;2024-03-08T02:17:32;0.40;82.70
42841;DHT22;28491;46.898;7.660;2024-03-08T02:20:00;0.30;78.80
42841;DHT22;28491;46.898;7.660;2024-03-08T02:22:30;0.30;82.80
42841;DHT22;28491;46.898;7.660;2024-03-08T02:24:58;0.30;88.00
42841;DHT22;28491;46.898;7.660;2024-03-08T02:27:24;0.30;84.30
42841;DHT22;28491;46.898;7.660;2024-03-08T02:29:56;0.40;83.50
42841;DHT22;28491;46.898;7.660;2024-03-08T02:32:22;0.40;87.40
42841;DHT22;28491;46.898;7.660;2024-03-08T02:34:48;0.40;86.90
42841;DHT22;28491;46.898;7.660;2024-03-08T02:37:15;0.40;81.20
42841;DHT22;28491;46.898;7.660;2024-03-08T02:39:41;0.40;88.40
42841;DHT22;28491;46.898;7.660;2024-03-08T02:42:06;0.40;81.10
42841;DHT22;28491;46.898;7.660;2024-03-08T02:44:32;0.40;75.60
42841;DHT22;28491;46.898;7.660;2024-03-08T02:46:59;0.30;62.80
42841;DHT22;28491;46.898;7.660;2024-03-08T02:49:25;0.20;77.10
42841;DHT22;28491;46.898;7.660;2024-03-08T02:51:52;0.20;80.30
42841;DHT22;28491;46.898;7.660;2024-03-08T02:54:18;0.20;78.90
42841;DHT22;28491;46.898;7.660;2024-03-08T02:56:45;0.20;85.50
42841;DHT22;28491;46.898;7.660;2024-03-08T02:59:14;0.20;86.80
42841;DHT22;28491;46.898;7.660;2024-03-08T03:01:43;0.20;81.90
42841;DHT22;28491;46.898;7.660;2024-03-08T03:04:08;0.20;76.20
42841;DHT22;28491;46.898;7.660;2024-03-08T03:06:34;0.10;78.50
42841;DHT22;28491;46.898;7.660;2024-03-08T03:09:01;0.20;74.40
42841;DHT22;28491;46.898;7.660;2024-03-08T03:11:26;0.20;83.20
42841;DHT22;28491;46.898;7.660;2024-03-08T03:13:52;0.30;84.80
42841;DHT22;28491;46.898;7.660;2024-03-08T03:16:20;0.30;85.30
42841;DHT22;28491;46.898;7.660;2024-03-08T03:18:46;0.30;84.50
42841;DHT22;28491;46.898;7.660;2024-03-08T03:21:13;0.30;85.30
42841;DHT22;28491;46.898;7.660;2024-03-08T03:23:41;0.30;78.90
42841;DHT22;28491;46.898;7.660;2024-03-08T03:26:10;0.20;68.20
42841;DHT22;28491;46.898;7.660;2024-03-08T03:28:38;0.20;76.40
42841;DHT22;28491;46.898;7.660;2024-03-08T03:31:06;0.20;75.70
42841;DHT22;28491;46.898;7.660;2024-03-08T03:33:32;0.20;75.30
42841;DHT22;28491;46.898;7.660;2024-03-08T03:35:59;0.10;75.70
42841;DHT22;28491;46.898;7.660;2024-03-08T03:38:26;0.10;72.40
42841;DHT22;28491;46.898;7.660;2024-03-08T03:40:53;0.00;72.00
42841;DHT22;28491;46.898;7.660;2024-03-08T03:43:23;0.00;80.40
42841;DHT22;28491;46.898;7.660;2024-03-08T03:45:48;0.00;74.30
42841;DHT22;28491;46.898;7.660;2024-03-08T03:48:14;0.00;68.60
42841;DHT22;28491;46.898;7.660;2024-03-08T03:50:39;0.00;68.50
42841;DHT22;28491;46.898;7.660;2024-03-08T03:53:05;0.00;65.10
42841;DHT22;28491;46.898;7.660;2024-03-08T03:55:34;0.00;63.10
42841;DHT22;28491;46.898;7.660;2024-03-08T03:58:02;0.00;61.80
42841;DHT22;28491;46.898;7.660;2024-03-08T04:00:28;0.00;70.50
42841;DHT22;28491;46.898;7.660;2024-03-08T04:02:54;0.00;81.00
42841;DHT22;28491;46.898;7.660;2024-03-08T04:05:20;0.00;78.30
42841;DHT22;28491;46.898;7.660;2024-03-08T04:07:45;0.00;74.70
42841;DHT22;28491;46.898;7.660;2024-03-08T04:10:11;0.10;72.70
42841;DHT22;28491;46.898;7.660;2024-03-08T04:12:37;0.00;76.80
42841;DHT22;28491;46.898;7.660;2024-03-08T04:15:04;0.00;68.20
42841;DHT22;28491;46.898;7.660;2024-03-08T04:17:33;0.00;71.10
42841;DHT22;28491;46.898;7.660;2024-03-08T04:20:02;0.00;77.70
42841;DHT22;28491;46.898;7.660;2024-03-08T04:22:34;0.00;76.70
42841;DHT22;28491;46.898;7.660;2024-03-08T04:25:01;0.10;74.30
42841;DHT22;28491;46.898;7.660;2024-03-08T04:27:27;0.10;66.20
42841;DHT22;28491;46.898;7.660;2024-03-08T04:29:53;0.10;60.30
42841;DHT22;28491;46.898;7.660;2024-03-08T04:32:18;0.10;59.70
42841;DHT22;28491;46.898;7.660;2024-03-08T04:34:44;0.00;63.00
42841;DHT22;28491;46.898;7.660;2024-03-08T04:37:09;0.00;71.70
42841;DHT22;28491;46.898;7.660;2024-03-08T04:39:38;-0.10;68.90
42841;DHT22;28491;46.898;7.660;2024-03-08T04:42:04;-0.10;68.50
42841;DHT22;28491;46.898;7.660;2024-03-08T04:44:32;0.00;73.30
42841;DHT22;28491;46.898;7.660;2024-03-08T04:46:59;-0.10;83.80
42841;DHT22;28491;46.898;7.660;2024-03-08T04:49:25;0.00;79.00
42841;DHT22;28491;46.898;7.660;2024-03-08T04:51:51;-0.10;21.50
42841;DHT22;28491;46.898;7.660;2024-03-08T04:54:16;-0.20;1.00
42841;DHT22;28491;46.898;7.660;2024-03-08T04:56:42;-0.30;1.00
42841;DHT22;28491;46.898;7.660;2024-03-08T04:59:07;-0.30;1.00
42841;DHT22;28491;46.898;7.660;2024-03-08T05:01:34;-0.30;1.00
42841;DHT22;28491;46.898;7.660;2024-03-08T05:03:59;-0.30;15.20
42841;DHT22;28491;46.898;7.660;2024-03-08T05:06:25;-0.30;65.40
42841;DHT22;28491;46.898;7.660;2024-03-08T05:08:50;-0.30;1.00
42841;DHT22;28491;46.898;7.660;2024-03-08T05:11:16;-0.30;54.80
42841;DHT22;28491;46.898;7.660;2024-03-08T05:13:41;-0.20;67.80
42841;DHT22;28491;46.898;7.660;2024-03-08T05:16:07;-0.20;77.90
42841;DHT22;28491;46.898;7.660;2024-03-08T05:18:34;-0.10;76.10
42841;DHT22;28491;46.898;7.660;2024-03-08T05:21:00;-0.10;80.00
42841;DHT22;28491;46.898;7.660;2024-03-08T05:23:25;-0.10;84.40
42841;DHT22;28491;46.898;7.660;2024-03-08T05:25:51;-0.10;86.70
42841;DHT22;28491;46.898;7.660;2024-03-08T05:28:16;0.00;87.40
42841;DHT22;28491;46.898;7.660;2024-03-08T05:30:42;0.00;80.70
42841;DHT22;28491;46.898;7.660;2024-03-08T05:33:07;0.00;77.70
42841;DHT22;28491;46.898;7.660;2024-03-08T05:35:36;0.00;78.40
42841;DHT22;28491;46.898;7.660;2024-03-08T05:38:01;0.00;81.10
42841;DHT22;28491;46.898;7.660;2024-03-08T05:40:27;0.00;78.20
42841;DHT22;28491;46.898;7.660;2024-03-08T05:42:57;0.00;77.40
42841;DHT22;28491;46.898;7.660;2024-03-08T05:45:23;0.00;60.80
42841;DHT22;28491;46.898;7.660;2024-03-08T05:47:50;-0.10;1.00
42841;DHT22;28491;46.898;7.660;2024-03-08T05:50:17;-0.20;1.00
42841;DHT22;28491;46.898;7.660;2024-03-08T05:52:43;-0.30;1.00
42841;DHT22;28491;46.898;7.660;2024-03-08T05:55:08;-0.30;7.60
42841;DHT22;28491;46.898;7.660;2024-03-08T05:57:35;-0.30;1.00
42841;DHT22;28491;46.898;7.660;2024-03-08T06:00:03;-0.40;1.00
42841;DHT22;28491;46.898;7.660;2024-03-08T06:02:29;-0.40;1.00
42841;DHT22;28491;46.898;7.660;2024-03-08T06:04:55;-0.50;1.00
42841;DHT22;28491;46.898;7.660;2024-03-08T06:07:20;-0.60;17.90
42841;DHT22;28491;46.898;7.660;2024-03-08T06:09:46;-0.60;24.80
42841;DHT22;28491;46.898;7.660;2024-03-08T06:12:12;-0.50;28.50
42841;DHT22;28491;46.898;7.660;2024-03-08T06:14:38;-0.50;59.70
42841;DHT22;28491;46.898;7.660;2024-03-08T06:17:04;-0.50;63.30
42841;DHT22;28491;46.898;7.660;2024-03-08T06:19:32;-0.40;69.50
42841;DHT22;28491;46.898;7.660;2024-03-08T06:21:58;-0.40;64.70
42841;DHT22;28491;46.898;7.660;2024-03-08T06:24:23;-0.40;54.40
42841;DHT22;28491;46.898;7.660;2024-03-08T06:26:49;-0.40;1.00
42841;DHT22;28491;46.898;7.660;2024-03-08T06:29:14;-0.40;1.00
42841;DHT22;28491;46.898;7.660;2024-03-08T06:31:40;-0.30;1.00
42841;DHT22;28491;46.898;7.660;2024-03-08T06:34:06;-0.30;1.00
42841;DHT22;28491;46.898;7.660;2024-03-08T06:36:33;-0.30;53.40
42841;DHT22;28491;46.898;7.660;2024-03-08T06:38:58;-0.20;30.20
42841;DHT22;28491;46.898;7.660;2024-03-08T06:41:24;-0.20;17.50
42841;DHT22;28491;46.898;7.660;2024-03-08T06:43:50;-0.10;1.00
42841;DHT22;28491;46.898;7.660;2024-03-08T06:46:17;-0.10;1.00
42841;DHT22;28491;46.898;7.660;2024-03-08T06:48:43;-0.10;1.00
42841;DHT22;28491;46.898;7.660;2024-03-08T06:51:08;-0.10;1.00
42841;DHT22;28491;46.898;7.660;2024-03-08T06:53:35;-0.10;1.00
42841;DHT22;28491;46.898;7.660;2024-03-08T06:56:02;-0.10;1.00
42841;DHT22;28491;46.898;7.660;2024-03-08T06:58:27;-0.10;1.00
42841;DHT22;28491;46.898;7.660;2024-03-08T07:00:53;-0.10;1.00
42841;DHT22;28491;46.898;7.660;2024-03-08T07:03:19;-0.10;55.70
42841;DHT22;28491;46.898;7.660;2024-03-08T07:05:47;0.00;34.00
42841;DHT22;28491;46.898;7.660;2024-03-08T07:08:13;0.00;57.50
42841;DHT22;28491;46.898;7.660;2024-03-08T07:10:39;0.10;66.20
42841;DHT22;28491;46.898;7.660;2024-03-08T07:13:07;0.20;22.00
42841;DHT22;28491;46.898;7.660;2024-03-08T07:15:33;0.20;1.00
42841;DHT22;28491;46.898;7.660;2024-03-08T07:17:58;0.20;1.00
42841;DHT22;28491;46.898;7.660;2024-03-08T07:20:25;0.20;1.00
42841;DHT22;28491;46.898;7.660;2024-03-08T07:22:50;0.30;40.70
42841;DHT22;28491;46.898;7.660;2024-03-08T07:25:16;0.30;12.20
42841;DHT22;28491;46.898;7.660;2024-03-08T07:27:55;0.40;1.00
42841;DHT22;28491;46.898;7.660;2024-03-08T07:30:25;0.30;1.00
42841;DHT22;28491;46.898;7.660;2024-03-08T07:33:09;0.40;1.00
42841;DHT22;28491;46.898;7.660;2024-03-08T07:35:38;0.40;1.00
42841;DHT22;28491;46.898;7.660;2024-03-08T07:38:06;0.40;1.00
42841;DHT22;28491;46.898;7.660;2024-03-08T07:40:38;0.50;1.00
42841;DHT22;28491;46.898;7.660;2024-03-08T07:43:07;0.50;13.50
42841;DHT22;28491;46.898;7.660;2024-03-08T07:45:32;0.60;1.00
42841;DHT22;28491;46.898;7.660;2024-03-08T07:47:58;0.60;1.00
42841;DHT22;28491;46.898;7.660;2024-03-08T07:50:23;0.60;1.00
42841;DHT22;28491;46.898;7.660;2024-03-08T07:52:49;0.70;1.00
42841;DHT22;28491;46.898;7.660;2024-03-08T07:55:15;0.70;1.00
42841;DHT22;28491;46.898;7.660;2024-03-08T07:57:40;0.80;1.00
42841;DHT22;28491;46.898;7.660;2024-03-08T08:00:08;0.80;1.00
42841;DHT22;28491;46.898;7.660;2024-03-08T08:02:36;0.80;1.00
42841;DHT22;28491;46.898;7.660;2024-03-08T08:05:02;0.80;1.00
42841;DHT22;28491;46.898;7.660;2024-03-08T08:07:29;0.90;1.00
42841;DHT22;28491;46.898;7.660;2024-03-08T08:09:54;1.00;1.00
42841;DHT22;28491;46.898;7.660;2024-03-08T08:12:20;1.00;1.00
42841;DHT22;28491;46.898;7.660;2024-03-08T08:14:46;1.00;1.00
42841;DHT22;28491;46.898;7.660;2024-03-08T08:17:12;1.00;1.00
42841;DHT22;28491;46.898;7.660;2024-03-08T08:19:37;1.00;1.00
42841;DHT22;28491;46.898;7.660;2024-03-08T08:22:04;0.90;1.00
42841;DHT22;28491;46.898;7.660;2024-03-08T08:24:30;1.00;1.00
42841;DHT22;28491;46.898;7.660;2024-03-08T08:26:55;1.00;1.00
42841;DHT22;28491;46.898;7.660;2024-03-08T08:29:21;1.00;1.00
42841;DHT22;28491;46.898;7.660;2024-03-08T08:31:48;1.10;1.00
42841;DHT22;28491;46.898;7.660;2024-03-08T08:34:16;1.10;5.00
42841;DHT22;28491;46.898;7.660;2024-03-08T08:36:44;1.30;23.30
42841;DHT22;28491;46.898;7.660;2024-03-08T08:39:10;1.20;1.00
42841;DHT22;28491;46.898;7.660;2024-03-08T08:41:39;1.20;1.00
42841;DHT22;28491;46.898;7.660;2024-03-08T08:44:04;1.30;40.90
42841;DHT22;28491;46.898;7.660;2024-03-08T08:46:38;1.30;63.80
42841;DHT22;28491;46.898;7.660;2024-03-08T08:49:04;1.40;69.10
42841;DHT22;28491;46.898;7.660;2024-03-08T08:51:31;1.40;83.30
42841;DHT22;28491;46.898;7.660;2024-03-08T08:53:58;1.50;95.00
42841;DHT22;28491;46.898;7.660;2024-03-08T08:56:24;1.60;97.80
42841;DHT22;28491;46.898;7.660;2024-03-08T08:58:51;1.70;96.50
42841;DHT22;28491;46.898;7.660;2024-03-08T09:01:17;1.70;95.70
42841;DHT22;28491;46.898;7.660;2024-03-08T09:03:43;1.80;94.40
42841;DHT22;28491;46.898;7.660;2024-03-08T09:06:12;1.80;93.40
42841;DHT22;28491;46.898;7.660;2024-03-08T09:08:38;1.90;94.20
42841;DHT22;28491;46.898;7.660;2024-03-08T09:11:04;1.90;95.70
42841;DHT22;28491;46.898;7.660;2024-03-08T09:13:30;1.90;94.90
42841;DHT22;28491;46.898;7.660;2024-03-08T09:15:56;1.90;97.30
42841;DHT22;28491;46.898;7.660;2024-03-08T09:18:21;1.90;96.90
42841;DHT22;28491;46.898;7.660;2024-03-08T09:20:47;1.90;96.30
42841;DHT22;28491;46.898;7.660;2024-03-08T09:23:13;1.80;93.90
42841;DHT22;28491;46.898;7.660;2024-03-08T09:25:38;1.80;95.00
42841;DHT22;28491;46.898;7.660;2024-03-08T09:28:04;1.80;95.10
42841;DHT22;28491;46.898;7.660;2024-03-08T09:30:31;1.90;96.80
42841;DHT22;28491;46.898;7.660;2024-03-08T09:32:56;1.90;98.40
42841;DHT22;28491;46.898;7.660;2024-03-08T09:35:22;1.80;98.10
42841;DHT22;28491;46.898;7.660;2024-03-08T09:37:48;1.90;99.90
42841;DHT22;28491;46.898;7.660;2024-03-08T09:40:16;2.00;99.90
42841;DHT22;28491;46.898;7.660;2024-03-08T09:42:46;2.10;99.90
42841;DHT22;28491;46.898;7.660;2024-03-08T09:45:12;2.10;99.10
42841;DHT22;28491;46.898;7.660;2024-03-08T09:47:44;2.30;1.00
42841;DHT22;28491;46.898;7.660;2024-03-08T09:50:11;2.30;99.90
42841;DHT22;28491;46.898;7.660;2024-03-08T09:52:41;2.40;96.30
42841;DHT22;28491;46.898;7.660;2024-03-08T09:55:10;2.40;96.80
42841;DHT22;28491;46.898;7.660;2024-03-08T09:57:40;2.50;93.70
42841;DHT22;28491;46.898;7.660;2024-03-08T10:00:06;2.50;90.50
42841;DHT22;28491;46.898;7.660;2024-03-08T10:02:45;2.50;91.90
42841;DHT22;28491;46.898;7.660;2024-03-08T10:05:12;2.50;95.20
42841;DHT22;28491;46.898;7.660;2024-03-08T10:07:38;2.50;94.80
42841;DHT22;28491;46.898;7.660;2024-03-08T10:10:04;2.50;91.90
42841;DHT22;28491;46.898;7.660;2024-03-08T10:12:30;2.50;91.70
42841;DHT22;28491;46.898;7.660;2024-03-08T10:14:58;2.50;94.80
42841;DHT22;28491;46.898;7.660;2024-03-08T10:17:24;2.40;95.80
42841;DHT22;28491;46.898;7.660;2024-03-08T10:19:50;2.50;96.90
42841;DHT22;28491;46.898;7.660;2024-03-08T10:22:17;2.60;99.90
42841;DHT22;28491;46.898;7.660;2024-03-08T10:24:48;2.60;99.90
42841;DHT22;28491;46.898;7.660;2024-03-08T10:27:17;2.60;96.70
42841;DHT22;28491;46.898;7.660;2024-03-08T10:29:42;2.60;95.70
42841;DHT22;28491;46.898;7.660;2024-03-08T10:32:10;2.70;96.50
42841;DHT22;28491;46.898;7.660;2024-03-08T10:34:35;2.70;96.30
42841;DHT22;28491;46.898;7.660;2024-03-08T10:37:03;2.70;95.00
42841;DHT22;28491;46.898;7.660;2024-03-08T10:39:35;2.70;93.80
42841;DHT22;28491;46.898;7.660;2024-03-08T10:42:03;2.80;96.60
42841;DHT22;28491;46.898;7.660;2024-03-08T10:49:39;2.80;93.20
42841;DHT22;28491;46.898;7.660;2024-03-08T10:52:09;2.90;95.10
42841;DHT22;28491;46.898;7.660;2024-03-08T10:54:38;2.90;97.50
42841;DHT22;28491;46.898;7.660;2024-03-08T10:57:05;2.90;97.70
42841;DHT22;28491;46.898;7.660;2024-03-08T10:59:34;3.00;98.60
42841;DHT22;28491;46.898;7.660;2024-03-08T11:02:00;3.00;97.00
42841;DHT22;28491;46.898;7.660;2024-03-08T11:04:26;3.00;93.80
42841;DHT22;28491;46.898;7.660;2024-03-08T11:07:03;3.10;94.60
42841;DHT22;28491;46.898;7.660;2024-03-08T11:09:35;3.10;94.90
42841;DHT22;28491;46.898;7.660;2024-03-08T11:12:26;3.20;98.60
42841;DHT22;28491;46.898;7.660;2024-03-08T11:14:55;3.30;98.50
42841;DHT22;28491;46.898;7.660;2024-03-08T11:19:58;3.40;98.00
42841;DHT22;28491;46.898;7.660;2024-03-08T11:22:28;3.40;99.80
42841;DHT22;28491;46.898;7.660;2024-03-08T11:25:04;3.50;1.00
42841;DHT22;28491;46.898;7.660;2024-03-08T11:27:35;3.60;1.00
42841;DHT22;28491;46.898;7.660;2024-03-08T11:30:06;3.60;1.00
42841;DHT22;28491;46.898;7.660;2024-03-08T11:32:45;3.70;1.00
42841;DHT22;28491;46.898;7.660;2024-03-08T11:35:19;3.70;99.90
42841;DHT22;28491;46.898;7.660;2024-03-08T11:37:45;3.70;97.50
42841;DHT22;28491;46.898;7.660;2024-03-08T11:40:14;3.80;99.70
42841;DHT22;28491;46.898;7.660;2024-03-08T11:42:45;3.90;98.00
42841;DHT22;28491;46.898;7.660;2024-03-08T11:45:15;3.90;96.20
42841;DHT22;28491;46.898;7.660;2024-03-08T11:47:43;3.90;95.20
42841;DHT22;28491;46.898;7.660;2024-03-08T11:50:11;4.00;94.10
42841;DHT22;28491;46.898;7.660;2024-03-08T11:52:37;4.00;96.00
42841;DHT22;28491;46.898;7.660;2024-03-08T11:55:03;4.00;94.60
42841;DHT22;28491;46.898;7.660;2024-03-08T11:57:30;4.10;99.60
42841;DHT22;28491;46.898;7.660;2024-03-08T11:59:56;4.10;98.10
42841;DHT22;28491;46.898;7.660;2024-03-08T12:02:34;4.20;94.70
42841;DHT22;28491;46.898;7.660;2024-03-08T12:05:06;4.20;91.50
42841;DHT22;28491;46.898;7.660;2024-03-08T12:07:32;4.20;82.00
42841;DHT22;28491;46.898;7.660;2024-03-08T12:10:17;4.20;81.30
42841;DHT22;28491;46.898;7.660;2024-03-08T12:12:48;4.20;81.60
42841;DHT22;28491;46.898;7.660;2024-03-08T12:15:22;4.30;85.40
42841;DHT22;28491;46.898;7.660;2024-03-08T12:17:50;4.40;96.20
42841;DHT22;28491;46.898;7.660;2024-03-08T12:22:46;4.50;91.10
42841;DHT22;28491;46.898;7.660;2024-03-08T12:25:12;4.40;67.40
42841;DHT22;28491;46.898;7.660;2024-03-08T12:27:41;4.40;81.20
42841;DHT22;28491;46.898;7.660;2024-03-08T12:30:21;4.50;89.80
42841;DHT22;28491;46.898;7.660;2024-03-08T12:32:50;4.50;92.50
42841;DHT22;28491;46.898;7.660;2024-03-08T12:35:19;4.60;90.70
42841;DHT22;28491;46.898;7.660;2024-03-08T12:37:48;4.60;81.10
42841;DHT22;28491;46.898;7.660;2024-03-08T12:40:14;4.70;93.50
42841;DHT22;28491;46.898;7.660;2024-03-08T12:42:43;4.80;92.80
42841;DHT22;28491;46.898;7.660;2024-03-08T12:45:08;4.80;90.30
42841;DHT22;28491;46.898;7.660;2024-03-08T12:47:35;4.90;79.90
42841;DHT22;28491;46.898;7.660;2024-03-08T12:50:02;4.90;79.70
42841;DHT22;28491;46.898;7.660;2024-03-08T12:52:28;5.00;88.80
42841;DHT22;28491;46.898;7.660;2024-03-08T12:54:55;5.00;68.00
42841;DHT22;28491;46.898;7.660;2024-03-08T12:57:21;5.10;63.30
42841;DHT22;28491;46.898;7.660;2024-03-08T12:59:46;5.10;2.20
42841;DHT22;28491;46.898;7.660;2024-03-08T13:02:12;5.10;1.00
42841;DHT22;28491;46.898;7.660;2024-03-08T13:04:37;5.20;1.00
42841;DHT22;28491;46.898;7.660;2024-03-08T13:07:03;5.20;1.00
42841;DHT22;28491;46.898;7.660;2024-03-08T13:09:29;5.20;1.00
42841;DHT22;28491;46.898;7.660;2024-03-08T13:11:54;5.20;1.00
42841;DHT22;28491;46.898;7.660;2024-03-08T13:14:21;5.30;1.00
42841;DHT22;28491;46.898;7.660;2024-03-08T13:16:47;5.30;97.70
42841;DHT22;28491;46.898;7.660;2024-03-08T13:19:13;5.20;95.40
42841;DHT22;28491;46.898;7.660;2024-03-08T13:21:39;5.20;99.90
42841;DHT22;28491;46.898;7.660;2024-03-08T13:24:05;5.40;1.00
42841;DHT22;28491;46.898;7.660;2024-03-08T13:26:31;5.30;1.00
42841;DHT22;28491;46.898;7.660;2024-03-08T13:28:59;5.30;1.00
42841;DHT22;28491;46.898;7.660;2024-03-08T13:31:25;5.40;1.00
42841;DHT22;28491;46.898;7.660;2024-03-08T13:33:50;5.40;1.00
42841;DHT22;28491;46.898;7.660;2024-03-08T13:36:22;5.40;1.00
42841;DHT22;28491;46.898;7.660;2024-03-08T13:38:50;5.50;1.00
42841;DHT22;28491;46.898;7.660;2024-03-08T13:41:16;5.60;99.90
42841;DHT22;28491;46.898;7.660;2024-03-08T13:43:46;5.70;99.60
42841;DHT22;28491;46.898;7.660;2024-03-08T13:46:12;5.80;98.20
42841;DHT22;28491;46.898;7.660;2024-03-08T13:48:37;5.90;92.80
42841;DHT22;28491;46.898;7.660;2024-03-08T13:51:04;6.00;93.30
42841;DHT22;28491;46.898;7.660;2024-03-08T13:53:32;6.10;92.90
42841;DHT22;28491;46.898;7.660;2024-03-08T13:55:58;6.20;89.20
42841;DHT22;28491;46.898;7.660;2024-03-08T13:58:24;6.20;75.00
42841;DHT22;28491;46.898;7.660;2024-03-08T14:00:50;6.30;77.40
42841;DHT22;28491;46.898;7.660;2024-03-08T14:03:17;6.20;76.00
42841;DHT22;28491;46.898;7.660;2024-03-08T14:05:43;6.20;70.70
42841;DHT22;28491;46.898;7.660;2024-03-08T14:08:09;6.10;66.90
42841;DHT22;28491;46.898;7.660;2024-03-08T14:10:37;6.10;78.00
42841;DHT22;28491;46.898;7.660;2024-03-08T14:13:04;6.00;74.50
42841;DHT22;28491;46.898;7.660;2024-03-08T14:15:31;6.00;89.20
42841;DHT22;28491;46.898;7.660;2024-03-08T14:17:56;6.00;86.70
42841;DHT22;28491;46.898;7.660;2024-03-08T14:20:23;5.90;92.90
42841;DHT22;28491;46.898;7.660;2024-03-08T14:22:55;5.90;99.90
42841;DHT22;28491;46.898;7.660;2024-03-08T14:25:21;5.90;99.90
42841;DHT22;28491;46.898;7.660;2024-03-08T14:27:50;6.00;95.10
42841;DHT22;28491;46.898;7.660;2024-03-08T14:30:16;6.00;93.90
42841;DHT22;28491;46.898;7.660;2024-03-08T14:32:58;6.00;96.90
42841;DHT22;28491;46.898;7.660;2024-03-08T14:35:24;6.00;95.20
42841;DHT22;28491;46.898;7.660;2024-03-08T14:37:50;6.10;98.80
42841;DHT22;28491;46.898;7.660;2024-03-08T14:40:17;6.20;88.80
42841;DHT22;28491;46.898;7.660;2024-03-08T14:42:48;6.30;74.20
42841;DHT22;28491;46.898;7.660;2024-03-08T14:45:15;6.40;75.70
42841;DHT22;28491;46.898;7.660;2024-03-08T14:47:41;6.50;74.00
42841;DHT22;28491;46.898;7.660;2024-03-08T14:50:08;6.40;54.70
42841;DHT22;28491;46.898;7.660;2024-03-08T14:52:35;6.40;71.10
42841;DHT22;28491;46.898;7.660;2024-03-08T14:55:01;6.40;79.60
42841;DHT22;28491;46.898;7.660;2024-03-08T14:57:32;6.40;88.90
42841;DHT22;28491;46.898;7.660;2024-03-08T14:59:58;6.40;93.70
42841;DHT22;28491;46.898;7.660;2024-03-08T15:02:28;6.40;96.10
42841;DHT22;28491;46.898;7.660;2024-03-08T15:04:53;6.40;95.80
42841;DHT22;28491;46.898;7.660;2024-03-08T15:07:23;6.50;95.20
42841;DHT22;28491;46.898;7.660;2024-03-08T15:09:49;6.60;85.60
42841;DHT22;28491;46.898;7.660;2024-03-08T15:12:15;6.50;91.10
42841;DHT22;28491;46.898;7.660;2024-03-08T15:14:40;6.50;93.40
42841;DHT22;28491;46.898;7.660;2024-03-08T15:17:09;6.60;93.50
42841;DHT22;28491;46.898;7.660;2024-03-08T15:19:38;6.60;95.20
42841;DHT22;28491;46.898;7.660;2024-03-08T15:22:04;6.60;94.10
42841;DHT22;28491;46.898;7.660;2024-03-08T15:24:29;6.60;98.00
42841;DHT22;28491;46.898;7.660;2024-03-08T15:26:56;6.60;96.80
42841;DHT22;28491;46.898;7.660;2024-03-08T15:29:22;6.70;99.10
42841;DHT22;28491;46.898;7.660;2024-03-08T15:31:52;6.60;97.60
42841;DHT22;28491;46.898;7.660;2024-03-08T15:34:19;6.60;1.00
42841;DHT22;28491;46.898;7.660;2024-03-08T15:36:49;6.40;1.00
42841;DHT22;28491;46.898;7.660;2024-03-08T15:39:19;6.40;1.00
42841;DHT22;28491;46.898;7.660;2024-03-08T15:41:48;6.50;1.00
42841;DHT22;28491;46.898;7.660;2024-03-08T15:44:14;6.60;1.00
42841;DHT22;28491;46.898;7.660;2024-03-08T15:46:41;6.50;1.00
42841;DHT22;28491;46.898;7.660;2024-03-08T15:49:06;6.50;1.00
42841;DHT22;28491;46.898;7.660;2024-03-08T15:51:32;6.60;1.00
42841;DHT22;28491;46.898;7.660;2024-03-08T15:53:58;6.60;1.00
42841;DHT22;28491;46.898;7.660;2024-03-08T15:56:24;6.60;1.00